createdAt,value
2022-09-24T00:01:35.053Z,4.22
2022-09-24T00:04:11.931Z,3.98
2022-09-24T00:06:44.085Z,4.50
2022-09-24T00:09:16.846Z,3.67
2022-09-24T00:11:46.007Z,3.62
2022-09-24T00:14:15.713Z,3.98
2022-09-24T00:16:45.990Z,4.20
2022-09-24T00:19:15.563Z,4.33
2022-09-24T00:21:44.994Z,3.70
2022-09-24T00:24:18.525Z,4.10
2022-09-24T00:26:50.798Z,3.67
2022-09-24T00:29:23.712Z,4.28
2022-09-24T00:31:53.768Z,3.98
2022-09-24T00:34:23.104Z,3.83
2022-09-24T00:36:54.450Z,3.85
2022-09-24T00:39:24.473Z,3.90
2022-09-24T00:41:54.156Z,3.80
2022-09-24T00:44:50.665Z,4.10
2022-09-24T00:47:39.363Z,3.95
2022-09-24T00:50:22.291Z,3.72
2022-09-24T00:53:11.962Z,3.65
2022-09-24T00:55:42.257Z,3.80
2022-09-24T00:58:11.181Z,3.62
2022-09-24T01:00:40.367Z,3.75
2022-09-24T01:03:13.945Z,3.75
2022-09-24T01:05:43.695Z,3.27
2022-09-24T01:08:15.478Z,3.47
2022-09-24T01:11:19.189Z,3.85
2022-09-24T01:14:02.143Z,3.30
2022-09-24T01:16:49.503Z,3.33
2022-09-24T01:19:45.100Z,3.62
2022-09-24T01:22:54.313Z,3.10
2022-09-24T01:25:46.658Z,3.77
2022-09-24T01:28:55.600Z,3.33
2022-09-24T01:31:35.233Z,3.60
2022-09-24T01:34:07.406Z,3.05
2022-09-24T01:36:36.717Z,3.12
2022-09-24T01:39:05.565Z,3.55
2022-09-24T01:41:37.137Z,3.50
2022-09-24T01:44:07.716Z,3.33
2022-09-24T01:46:39.772Z,3.33
2022-09-24T01:49:08.712Z,3.27
2022-09-24T01:51:44.156Z,3.52
2022-09-24T01:54:23.604Z,3.60
2022-09-24T01:57:14.691Z,3.67
2022-09-24T01:59:48.432Z,2.98
2022-09-24T02:02:27.016Z,3.80
2022-09-24T02:05:12.515Z,3.70
2022-09-24T02:07:53.034Z,3.65
2022-09-24T02:10:21.660Z,3.58
2022-09-24T02:12:55.602Z,3.62
2022-09-24T02:15:32.213Z,3.60
2022-09-24T02:18:07.247Z,4.10
2022-09-24T02:20:36.829Z,4.72
2022-09-24T02:23:08.235Z,4.30
2022-09-24T02:25:55.500Z,4.42
2022-09-24T02:28:24.883Z,4.10
2022-09-24T02:31:10.084Z,4.60
2022-09-24T02:34:01.321Z,4.22
2022-09-24T02:36:30.259Z,3.80
2022-09-24T02:38:59.450Z,3.83
2022-09-24T02:41:28.130Z,4.05
2022-09-24T02:43:57.435Z,4.33
2022-09-24T02:46:26.525Z,3.87
2022-09-24T02:48:55.318Z,3.45
2022-09-24T02:51:24.198Z,3.50
2022-09-24T02:53:52.772Z,4.08
2022-09-24T02:56:21.498Z,3.90
2022-09-24T02:58:50.961Z,4.37
2022-09-24T03:01:20.412Z,3.80
2022-09-24T03:03:50.458Z,3.77
2022-09-24T03:06:19.041Z,4.10
2022-09-24T03:08:49.085Z,3.72
2022-09-24T03:11:18.970Z,4.22
2022-09-24T03:13:48.140Z,4.10
2022-09-24T03:16:17.528Z,3.98
2022-09-24T03:18:47.861Z,3.60
2022-09-24T03:21:19.379Z,3.95
2022-09-24T03:23:48.002Z,3.72
2022-09-24T03:26:17.721Z,3.80
2022-09-24T03:28:46.537Z,4.12
2022-09-24T03:31:15.209Z,3.75
2022-09-24T03:33:47.979Z,3.72
2022-09-24T03:36:20.545Z,4.00
2022-09-24T03:38:51.032Z,4.00
2022-09-24T03:41:21.956Z,3.90
2022-09-24T03:43:50.780Z,3.77
2022-09-24T03:46:19.858Z,3.45
2022-09-24T03:48:50.159Z,3.30
2022-09-24T03:51:19.600Z,3.55
2022-09-24T03:53:48.722Z,3.75
2022-09-24T03:56:17.436Z,3.72
2022-09-24T03:58:47.947Z,3.58
2022-09-24T04:01:21.391Z,3.27
2022-09-24T04:03:50.785Z,3.10
2022-09-24T04:06:24.849Z,3.58
2022-09-24T04:08:49.882Z,3.60
2022-09-24T04:11:21.383Z,3.45
2022-09-24T04:13:50.199Z,3.42
2022-09-24T04:16:20.327Z,3.72
2022-09-24T04:18:49.137Z,3.55
2022-09-24T04:21:19.584Z,3.25
2022-09-24T04:23:48.261Z,3.70
2022-09-24T04:26:17.396Z,3.80
2022-09-24T04:28:46.180Z,3.65
2022-09-24T04:31:15.644Z,3.35
2022-09-24T04:33:45.758Z,3.02
2022-09-24T04:36:14.982Z,3.83
2022-09-24T04:38:45.475Z,3.42
2022-09-24T04:41:16.038Z,3.80
2022-09-24T04:43:48.035Z,3.62
2022-09-24T04:46:18.545Z,3.77
2022-09-24T04:48:47.377Z,3.27
2022-09-24T04:51:19.163Z,3.60
2022-09-24T04:53:50.610Z,3.40
2022-09-24T04:56:20.372Z,3.67
2022-09-24T04:58:51.658Z,3.58
2022-09-24T05:01:21.319Z,3.80
2022-09-24T05:03:51.574Z,3.50
2022-09-24T05:06:20.716Z,3.70
2022-09-24T05:08:50.262Z,3.80
2022-09-24T05:11:20.249Z,4.12
2022-09-24T05:13:49.477Z,3.27
2022-09-24T05:16:18.774Z,3.83
2022-09-24T05:18:52.709Z,3.50
2022-09-24T05:21:23.467Z,3.02
2022-09-24T05:23:52.058Z,3.98
2022-09-24T05:26:39.634Z,2.87
2022-09-24T05:29:10.116Z,2.60
2022-09-24T05:31:38.723Z,2.70
2022-09-24T05:34:08.483Z,3.47
2022-09-24T05:36:38.069Z,12.15
2022-09-24T05:39:07.362Z,2.67
2022-09-24T05:41:36.593Z,3.30
2022-09-24T05:44:05.827Z,3.50
2022-09-24T05:46:35.858Z,3.87
2022-09-24T05:49:04.495Z,2.92
2022-09-24T05:51:33.222Z,3.02
2022-09-24T05:54:03.201Z,2.52
2022-09-24T05:56:31.899Z,10.10
2022-09-24T05:59:03.683Z,2.80
2022-09-24T06:01:32.566Z,3.33
2022-09-24T06:04:06.284Z,2.80
2022-09-24T06:06:32.803Z,2.90
2022-09-24T06:09:04.086Z,2.70
2022-09-24T06:11:40.056Z,3.30
2022-09-24T06:14:06.084Z,3.00
2022-09-24T06:16:35.685Z,2.60
2022-09-24T06:19:06.035Z,2.95
2022-09-24T06:21:35.871Z,2.77
2022-09-24T06:24:05.512Z,3.00
2022-09-24T06:26:34.721Z,2.87
2022-09-24T06:29:05.130Z,3.10
2022-09-24T06:31:35.618Z,3.20
2022-09-24T06:34:05.233Z,2.77
2022-09-24T06:36:34.532Z,2.58
2022-09-24T06:39:04.532Z,3.20
2022-09-24T06:41:33.693Z,2.90
2022-09-24T06:44:03.192Z,4.12
2022-09-24T06:46:32.195Z,3.33
2022-09-24T06:49:01.318Z,2.47
2022-09-24T06:51:30.564Z,3.20
2022-09-24T06:54:00.392Z,3.33
2022-09-24T06:56:30.720Z,2.72
2022-09-24T06:58:59.569Z,3.00
2022-09-24T07:01:29.090Z,2.75
2022-09-24T07:03:57.950Z,2.85
2022-09-24T07:06:29.342Z,2.77
2022-09-24T07:08:59.007Z,3.02
2022-09-24T07:11:29.126Z,2.62
2022-09-24T07:14:00.293Z,3.00
2022-09-24T07:16:30.197Z,2.90
2022-09-24T07:19:01.263Z,4.55
2022-09-24T07:21:39.117Z,3.83
2022-09-24T07:24:10.675Z,5.10
2022-09-24T07:26:39.967Z,3.30
2022-09-24T07:29:08.898Z,3.37
2022-09-24T07:31:39.214Z,3.40
2022-09-24T07:34:11.600Z,2.42
2022-09-24T07:36:42.195Z,2.55
2022-09-24T07:39:11.556Z,2.65
2022-09-24T07:41:42.365Z,2.77
2022-09-24T07:44:12.260Z,2.50
2022-09-24T07:46:41.776Z,2.52
2022-09-24T07:49:11.164Z,2.47
2022-09-24T07:51:39.972Z,2.50
2022-09-24T07:54:12.753Z,2.40
2022-09-24T07:56:42.952Z,2.33
2022-09-24T07:59:12.247Z,2.50
2022-09-24T08:01:42.195Z,2.30
2022-09-24T08:04:11.224Z,2.35
2022-09-24T08:06:44.982Z,2.25
2022-09-24T08:09:11.733Z,2.17
2022-09-24T08:11:41.971Z,3.08
2022-09-24T08:14:11.408Z,3.33
2022-09-24T08:16:41.719Z,2.40
2022-09-24T08:19:12.988Z,2.27
2022-09-24T08:21:42.327Z,2.10
2022-09-24T08:24:12.501Z,2.30
2022-09-24T08:26:43.607Z,2.12
2022-09-24T08:29:12.156Z,2.20
2022-09-24T08:31:42.444Z,1.85
2022-09-24T08:34:12.403Z,2.02
2022-09-24T08:36:43.067Z,1.60
2022-09-24T08:39:13.527Z,1.55
2022-09-24T08:41:59.611Z,1.70
2022-09-24T08:44:54.425Z,1.70
2022-09-24T08:47:42.351Z,1.62
2022-09-24T08:50:22.105Z,1.90
2022-09-24T08:53:17.403Z,1.60
2022-09-24T08:55:55.893Z,2.83
2022-09-24T08:58:44.100Z,2.17
2022-09-24T09:01:19.092Z,1.67
2022-09-24T09:06:59.167Z,2.08
2022-09-24T09:09:37.048Z,1.70
2022-09-24T09:12:12.803Z,1.65
2022-09-24T09:15:09.660Z,1.72
2022-09-24T09:18:12.850Z,1.70
2022-09-24T09:20:47.795Z,1.70
2022-09-24T09:23:23.088Z,1.55
2022-09-24T09:25:57.568Z,1.45
2022-09-24T09:28:27.922Z,1.47
2022-09-24T09:31:39.997Z,1.70
2022-09-24T09:34:18.383Z,1.85
2022-09-24T09:37:04.862Z,1.50
2022-09-24T09:42:35.722Z,1.57
2022-09-24T09:45:39.136Z,1.62
2022-09-24T09:48:12.172Z,1.50
2022-09-24T09:50:48.342Z,1.45
2022-09-24T09:53:28.502Z,1.35
2022-09-24T09:56:02.772Z,1.40
2022-09-24T09:58:32.948Z,1.80
2022-09-24T10:01:10.570Z,1.47
2022-09-24T10:03:54.646Z,1.40
2022-09-24T10:06:25.797Z,2.00
2022-09-24T10:08:56.750Z,1.37
2022-09-24T10:11:25.855Z,1.60
2022-09-24T10:14:12.675Z,1.52
2022-09-24T10:16:44.707Z,1.92
2022-09-24T10:19:20.565Z,1.90
2022-09-24T10:21:51.810Z,1.98
2022-09-24T10:24:23.294Z,2.10
2022-09-24T10:26:52.273Z,1.90
2022-09-24T10:29:47.578Z,1.80
2022-09-24T10:32:21.614Z,1.82
2022-09-24T10:35:06.519Z,1.75
2022-09-24T10:37:35.768Z,2.10
2022-09-24T10:40:15.030Z,1.80
2022-09-24T10:42:44.227Z,1.60
2022-09-24T10:45:14.633Z,1.98
2022-09-24T10:47:57.368Z,1.60
2022-09-24T10:50:45.594Z,1.77
2022-09-24T10:53:37.052Z,1.62
2022-09-24T10:56:23.369Z,1.60
2022-09-24T10:59:23.484Z,1.75
2022-09-24T11:02:22.225Z,1.70
2022-09-24T11:05:07.203Z,1.82
2022-09-24T11:07:45.575Z,1.67
2022-09-24T11:10:42.678Z,1.67
2022-09-24T11:13:35.403Z,1.70
2022-09-24T11:17:00.173Z,1.80
2022-09-24T11:20:07.503Z,1.60
2022-09-24T11:23:14.913Z,1.40
2022-09-24T11:26:01.195Z,1.25
2022-09-24T11:28:53.381Z,1.27
2022-09-24T11:32:04.247Z,1.40
2022-09-24T11:34:51.886Z,1.30
2022-09-24T11:38:02.957Z,1.40
2022-09-24T11:40:55.179Z,1.30
2022-09-24T11:44:02.933Z,1.25
2022-09-24T11:46:59.490Z,1.30
2022-09-24T11:49:59.658Z,1.25
2022-09-24T11:52:38.685Z,1.40
2022-09-24T11:55:33.317Z,1.10
2022-09-24T11:58:24.720Z,1.27
2022-09-24T12:01:00.877Z,1.35
2022-09-24T12:03:38.809Z,1.27
2022-09-24T12:06:15.423Z,1.10
2022-09-24T12:09:21.639Z,1.17
2022-09-24T12:11:57.084Z,1.40
2022-09-24T12:14:29.688Z,0.90
2022-09-24T12:17:05.490Z,0.60
2022-09-24T12:19:49.230Z,0.80
2022-09-24T12:22:18.449Z,1.12
2022-09-24T12:24:51.618Z,1.17
2022-09-24T12:27:35.978Z,3.27
2022-09-24T12:30:53.162Z,1.10
2022-09-24T12:33:57.710Z,0.98
2022-09-24T12:37:03.971Z,1.10
2022-09-24T12:39:45.644Z,0.90
2022-09-24T12:42:14.324Z,1.00
2022-09-24T12:44:48.029Z,1.42
2022-09-24T12:47:25.063Z,1.40
2022-09-24T12:50:00.302Z,1.67
2022-09-24T12:52:40.735Z,3.95
2022-09-24T12:55:25.319Z,1.32
2022-09-24T12:58:00.493Z,1.60
2022-09-24T13:00:42.380Z,1.40
2022-09-24T13:03:40.772Z,2.00
2022-09-24T13:06:34.323Z,1.12
2022-09-24T13:09:04.668Z,1.47
2022-09-24T13:11:36.963Z,1.20
2022-09-24T13:14:15.635Z,1.40
2022-09-24T13:16:49.183Z,0.98
2022-09-24T13:19:40.751Z,2.80
2022-09-24T13:22:30.035Z,1.37
2022-09-24T13:25:16.048Z,1.72
2022-09-24T13:27:48.344Z,1.90
2022-09-24T13:30:21.318Z,1.25
2022-09-24T13:33:01.167Z,1.40
2022-09-24T13:35:35.362Z,1.32
2022-09-24T13:38:28.866Z,1.37
2022-09-24T13:41:03.772Z,1.10
2022-09-24T13:44:01.393Z,2.02
2022-09-24T13:46:30.876Z,1.30
2022-09-24T13:49:10.841Z,1.00
2022-09-24T13:51:40.285Z,1.20
2022-09-24T13:54:26.250Z,1.15
2022-09-24T13:57:17.689Z,1.65
2022-09-24T13:59:46.629Z,1.25
2022-09-24T14:02:27.265Z,1.52
2022-09-24T14:04:58.212Z,1.40
2022-09-24T14:07:27.280Z,1.77
2022-09-24T14:10:13.964Z,1.55
2022-09-24T14:12:43.305Z,1.70
2022-09-24T14:15:16.987Z,1.57
2022-09-24T14:17:59.318Z,1.45
2022-09-24T14:20:32.291Z,1.32
2022-09-24T14:23:01.218Z,1.32
2022-09-24T14:25:31.222Z,1.25
2022-09-24T14:28:01.338Z,1.62
2022-09-24T14:30:30.367Z,1.80
2022-09-24T14:33:09.434Z,1.30
2022-09-24T14:35:38.773Z,1.47
2022-09-24T14:38:35.819Z,1.50
2022-09-24T14:41:08.594Z,1.50
2022-09-24T14:43:53.789Z,1.45
2022-09-24T14:46:27.425Z,1.67
2022-09-24T14:49:09.303Z,1.80
2022-09-24T14:51:38.879Z,1.30
2022-09-24T14:54:35.289Z,1.70
2022-09-24T14:57:21.609Z,1.60
2022-09-24T14:59:50.290Z,1.50
2022-09-24T15:02:36.859Z,1.47
2022-09-24T15:05:08.282Z,1.30
2022-09-24T15:07:37.863Z,1.20
2022-09-24T15:10:07.358Z,1.92
2022-09-24T15:12:37.589Z,1.70
2022-09-24T15:15:24.849Z,1.80
2022-09-24T15:17:55.151Z,1.30
2022-09-24T15:20:24.145Z,1.40
2022-09-24T15:22:53.109Z,1.95
2022-09-24T15:25:22.045Z,1.25
2022-09-24T15:27:53.286Z,1.40
2022-09-24T15:30:23.857Z,1.12
2022-09-24T15:32:53.744Z,1.40
2022-09-24T15:35:22.738Z,1.30
2022-09-24T15:37:51.927Z,1.12
2022-09-24T15:40:24.296Z,1.22
2022-09-24T15:42:54.117Z,1.60
2022-09-24T15:45:24.880Z,1.47
2022-09-24T15:47:56.227Z,1.55
2022-09-24T15:50:26.115Z,1.95
2022-09-24T15:53:00.278Z,1.87
2022-09-24T15:55:31.253Z,1.87
2022-09-24T15:58:02.168Z,1.75
2022-09-24T16:00:32.730Z,1.95
2022-09-24T16:03:02.212Z,2.00
2022-09-24T16:05:31.121Z,1.77
2022-09-24T16:08:02.929Z,2.90
2022-09-24T16:10:32.417Z,1.98
2022-09-24T16:13:04.765Z,1.82
2022-09-24T16:15:35.487Z,2.10
2022-09-24T16:18:11.776Z,1.98
2022-09-24T16:20:41.382Z,1.92
2022-09-24T16:23:15.397Z,2.30
2022-09-24T16:25:59.235Z,2.00
2022-09-24T16:28:30.185Z,2.10
2022-09-24T16:30:59.828Z,2.25
2022-09-24T16:33:28.689Z,2.10
2022-09-24T16:35:57.354Z,2.60
2022-09-24T16:38:26.532Z,1.98
2022-09-24T16:41:02.685Z,2.12
2022-09-24T16:43:31.995Z,1.95
2022-09-24T16:46:03.676Z,2.30
2022-09-24T16:48:35.315Z,2.08
2022-09-24T16:51:09.190Z,2.50
2022-09-24T16:53:38.174Z,2.40
2022-09-24T16:56:14.320Z,2.60
2022-09-24T16:58:44.088Z,2.50
2022-09-24T17:01:17.476Z,2.50
2022-09-24T17:03:58.378Z,2.40
2022-09-24T17:06:30.056Z,2.40
2022-09-24T17:09:18.925Z,2.87
2022-09-24T17:11:49.241Z,2.02
2022-09-24T17:14:19.100Z,2.40
2022-09-24T17:16:49.325Z,2.25
2022-09-24T17:19:18.780Z,2.00
2022-09-24T17:21:51.798Z,1.35
2022-09-24T17:24:22.246Z,1.57
2022-09-24T17:26:51.785Z,1.87
2022-09-24T17:29:22.115Z,1.72
2022-09-24T17:31:52.453Z,1.75
2022-09-24T17:34:21.848Z,1.95
2022-09-24T17:36:50.864Z,1.57
2022-09-24T17:39:20.532Z,1.72
2022-09-24T17:41:49.477Z,1.98
2022-09-24T17:44:19.634Z,1.60
2022-09-24T17:46:48.562Z,1.90
2022-09-24T17:49:19.752Z,2.25
2022-09-24T17:51:49.178Z,1.72
2022-09-24T17:54:22.752Z,2.00
2022-09-24T17:56:53.560Z,2.10
2022-09-24T17:59:26.644Z,2.15
2022-09-24T18:01:56.101Z,2.25
2022-09-24T18:04:27.831Z,2.20
2022-09-24T18:06:56.557Z,2.40
2022-09-24T18:09:27.150Z,2.20
2022-09-24T18:11:57.961Z,2.30
2022-09-24T18:14:27.863Z,2.22
2022-09-24T18:16:59.420Z,2.47
2022-09-24T18:19:29.645Z,2.90
2022-09-24T18:21:59.763Z,2.80
2022-09-24T18:24:28.791Z,2.20
2022-09-24T18:26:58.821Z,2.45
2022-09-24T18:29:27.916Z,2.70
2022-09-24T18:31:57.909Z,2.20
2022-09-24T18:34:26.894Z,2.90
2022-09-24T18:36:56.440Z,2.60
2022-09-24T18:39:26.239Z,2.83
2022-09-24T18:41:55.970Z,2.15
2022-09-24T18:44:26.453Z,2.70
2022-09-24T18:46:56.378Z,2.62
2022-09-24T18:49:26.605Z,2.42
2022-09-24T18:51:55.823Z,2.30
2022-09-24T18:54:25.143Z,2.45
2022-09-24T18:56:54.851Z,2.70
2022-09-24T18:59:24.149Z,2.45
2022-09-24T19:01:52.924Z,2.40
2022-09-24T19:04:28.033Z,2.45
2022-09-24T19:07:02.546Z,2.47
2022-09-24T19:09:32.032Z,2.22
2022-09-24T19:12:01.864Z,2.02
2022-09-24T19:14:32.212Z,2.58
2022-09-24T19:17:05.115Z,2.05
2022-09-24T19:19:36.435Z,2.02
2022-09-24T19:22:06.036Z,2.33
2022-09-24T19:24:35.291Z,2.08
2022-09-24T19:27:05.278Z,2.15
2022-09-24T19:29:35.687Z,1.95
2022-09-24T19:32:05.852Z,1.98
2022-09-24T19:34:35.369Z,1.80
2022-09-24T19:37:05.209Z,2.02
2022-09-24T19:39:34.743Z,2.30
2022-09-24T19:42:05.249Z,2.25
2022-09-24T19:44:36.447Z,2.12
2022-09-24T19:47:08.007Z,1.80
2022-09-24T19:49:38.063Z,2.10
2022-09-24T19:52:07.755Z,2.00
2022-09-24T19:54:37.219Z,2.20
2022-09-24T19:57:07.323Z,2.17
2022-09-24T19:59:38.137Z,2.33
2022-09-24T20:02:10.991Z,2.20
2022-09-24T20:04:42.104Z,2.08
2022-09-24T20:07:17.997Z,2.50
2022-09-24T20:09:48.992Z,2.70
2022-09-24T20:12:19.023Z,2.62
2022-09-24T20:14:47.713Z,2.22
2022-09-24T20:17:17.903Z,2.40
2022-09-24T20:19:51.898Z,2.33
2022-09-24T20:22:22.592Z,2.45
2022-09-24T20:24:51.582Z,2.35
2022-09-24T20:27:40.323Z,2.25
2022-09-24T20:30:10.568Z,2.30
2022-09-24T20:32:43.257Z,2.45
2022-09-24T20:35:12.786Z,2.22
2022-09-24T20:37:46.163Z,2.50
2022-09-24T20:40:16.719Z,2.80
2022-09-24T20:42:46.304Z,2.58
2022-09-24T20:45:17.061Z,2.45
2022-09-24T20:47:49.597Z,2.10
2022-09-24T20:50:19.922Z,2.05
2022-09-24T20:52:49.086Z,1.98
2022-09-24T20:55:18.037Z,2.40
2022-09-24T20:57:48.928Z,2.40
2022-09-24T21:00:18.215Z,2.12
2022-09-24T21:02:47.149Z,2.30
2022-09-24T21:05:16.848Z,2.20
2022-09-24T21:07:46.561Z,2.27
2022-09-24T21:10:17.504Z,2.30
2022-09-24T21:12:50.962Z,2.02
2022-09-24T21:15:19.135Z,2.85
2022-09-24T21:18:11.572Z,2.10
2022-09-24T21:20:21.063Z,2.20
2022-09-24T21:22:50.312Z,2.35
2022-09-24T21:25:49.402Z,2.12
2022-09-24T21:27:52.976Z,2.02
2022-09-24T21:30:22.650Z,1.92
2022-09-24T21:32:51.806Z,1.77
2022-09-24T21:35:21.288Z,1.98
2022-09-24T21:37:51.870Z,2.25
2022-09-24T21:40:21.757Z,2.00
2022-09-24T21:42:51.823Z,2.37
2022-09-24T21:45:20.853Z,2.27
2022-09-24T21:47:52.305Z,1.80
2022-09-24T21:50:22.358Z,2.00
2022-09-24T21:52:53.783Z,2.02
2022-09-24T21:55:23.482Z,2.30
2022-09-24T21:57:52.941Z,2.37
2022-09-24T22:00:24.008Z,2.08
2022-09-24T22:02:53.914Z,1.82
2022-09-24T22:05:22.817Z,2.27
2022-09-24T22:07:53.946Z,1.82
2022-09-24T22:10:23.900Z,2.00
2022-09-24T22:12:53.271Z,1.80
2022-09-24T22:15:22.686Z,2.10
2022-09-24T22:17:51.747Z,2.17
2022-09-24T22:20:21.032Z,1.85
2022-09-24T22:22:50.136Z,1.67
2022-09-24T22:25:18.940Z,2.15
2022-09-24T22:27:47.747Z,2.10
2022-09-24T22:30:16.656Z,1.90
2022-09-24T22:32:47.486Z,1.57
2022-09-24T22:35:38.345Z,2.17
2022-09-24T22:38:06.653Z,1.60
2022-09-24T22:40:35.954Z,2.17
2022-09-24T22:43:05.296Z,1.77
2022-09-24T22:45:34.221Z,1.85
2022-09-24T22:48:05.179Z,1.80
2022-09-24T22:50:34.222Z,1.98
2022-09-24T22:53:03.539Z,1.80
2022-09-24T22:55:33.106Z,2.00
2022-09-24T22:58:02.295Z,1.82
2022-09-24T23:00:31.042Z,2.47
2022-09-24T23:03:00.346Z,1.95
2022-09-24T23:05:31.335Z,1.90
2022-09-24T23:08:00.205Z,1.87
2022-09-24T23:10:29.864Z,1.90
2022-09-24T23:12:58.828Z,1.92
2022-09-24T23:15:28.419Z,1.67
2022-09-24T23:17:57.964Z,2.10
2022-09-24T23:20:27.283Z,1.90
2022-09-24T23:22:56.321Z,1.87
2022-09-24T23:25:25.894Z,2.00
2022-09-24T23:27:55.546Z,1.60
2022-09-24T23:30:26.074Z,1.62
2022-09-24T23:32:56.521Z,1.70
2022-09-24T23:35:26.239Z,1.80
2022-09-24T23:37:55.120Z,2.25
2022-09-24T23:40:24.335Z,1.80
2022-09-24T23:42:53.391Z,1.80
2022-09-24T23:45:22.034Z,1.87
2022-09-24T23:47:52.535Z,1.90
2022-09-24T23:50:21.454Z,1.92
2022-09-24T23:52:50.655Z,1.82
2022-09-24T23:55:21.620Z,1.42
2022-09-24T23:57:50.733Z,1.50
